createdAt,value
2018-05-19T00:00:53.142Z,99.99
2018-05-19T00:01:53.139Z,99.99
2018-05-19T00:02:52.878Z,99.99
2018-05-19T00:03:53.135Z,99.99
2018-05-19T00:04:53.140Z,99.99
2018-05-19T00:05:52.880Z,99.37
2018-05-19T00:06:52.869Z,99.99
2018-05-19T00:07:53.135Z,99.99
2018-05-19T00:08:53.126Z,99.99
2018-05-19T00:09:53.166Z,99.99
2018-05-19T00:10:52.857Z,99.99
2018-05-19T00:11:53.123Z,99.99
2018-05-19T00:12:52.849Z,99.99
2018-05-19T00:13:53.119Z,99.99
2018-05-19T00:14:53.909Z,99.99
2018-05-19T00:15:53.110Z,99.99
2018-05-19T00:16:53.126Z,99.99
2018-05-19T00:17:53.103Z,99.99
2018-05-19T00:18:53.102Z,99.99
2018-05-19T00:19:53.100Z,99.99
2018-05-19T00:20:53.103Z,99.99
2018-05-19T00:21:53.091Z,99.76
2018-05-19T00:22:52.838Z,99.85
2018-05-19T00:23:53.096Z,99.85
2018-05-19T00:24:53.151Z,99.37
2018-05-19T00:25:53.085Z,99.18
2018-05-19T00:26:53.089Z,98.9
2018-05-19T00:27:52.869Z,98.9
2018-05-19T00:28:53.100Z,99.57
2018-05-19T00:29:53.085Z,98.9
2018-05-19T00:30:52.835Z,98.8
2018-05-19T00:31:53.075Z,99.76
2018-05-19T00:32:53.071Z,99.66
2018-05-19T00:33:52.807Z,99.99
2018-05-19T00:34:52.808Z,99.99
2018-05-19T00:35:53.067Z,99.28
2018-05-19T00:36:53.061Z,99.85
2018-05-19T00:37:53.062Z,99.99
2018-05-19T00:38:52.795Z,99.95
2018-05-19T00:39:53.062Z,99.85
2018-05-19T00:40:53.166Z,99.99
2018-05-19T00:41:53.048Z,99.99
2018-05-19T00:42:52.796Z,99.99
2018-05-19T00:43:52.790Z,99.66
2018-05-19T00:44:52.778Z,99.99
2018-05-19T00:45:52.799Z,99.99
2018-05-19T00:46:53.040Z,99.99
2018-05-19T00:47:53.077Z,99.99
2018-05-19T00:48:52.778Z,99.99
2018-05-19T00:49:53.033Z,99.99
2018-05-19T00:50:53.041Z,99.99
2018-05-19T00:51:52.770Z,99.99
2018-05-19T00:52:53.031Z,99.99
2018-05-19T00:53:52.792Z,99.99
2018-05-19T00:54:52.761Z,99.99
2018-05-19T00:55:52.759Z,99.99
2018-05-19T00:56:53.017Z,99.99
2018-05-19T00:57:52.764Z,99.99
2018-05-19T00:58:53.019Z,99.99
2018-05-19T00:59:53.010Z,99.99
2018-05-19T01:00:52.756Z,99.99
2018-05-19T01:01:52.745Z,99.99
2018-05-19T01:02:53.006Z,99.99
2018-05-19T01:03:52.999Z,99.99
2018-05-19T01:04:53.008Z,99.99
2018-05-19T01:05:52.753Z,99.99
2018-05-19T01:06:52.733Z,99.99
2018-05-19T01:07:52.992Z,99.99
2018-05-19T01:08:52.727Z,99.99
2018-05-19T01:09:52.990Z,99.99
2018-05-19T01:10:52.984Z,99.99
2018-05-19T01:11:52.984Z,99.99
2018-05-19T01:12:52.979Z,99.99
2018-05-19T01:13:52.985Z,99.99
2018-05-19T01:14:52.971Z,99.99
2018-05-19T01:15:52.717Z,99.99
2018-05-19T01:16:52.968Z,99.99
2018-05-19T01:17:52.966Z,99.99
2018-05-19T01:18:52.975Z,99.99
2018-05-19T01:19:52.961Z,99.99
2018-05-19T01:20:52.701Z,99.99
2018-05-19T01:21:52.956Z,99.99
2018-05-19T01:22:52.696Z,99.99
2018-05-19T01:23:52.954Z,99.99
2018-05-19T01:24:52.694Z,99.99
2018-05-19T01:25:52.981Z,99.99
2018-05-19T01:26:52.941Z,99.99
2018-05-19T01:27:52.947Z,99.99
2018-05-19T01:28:52.696Z,99.99
2018-05-19T01:29:52.932Z,99.99
2018-05-19T01:30:52.679Z,99.99
2018-05-19T01:31:52.680Z,99.99
2018-05-19T01:32:52.938Z,99.99
2018-05-19T01:33:52.920Z,99.99
2018-05-19T01:34:52.916Z,99.99
2018-05-19T01:35:52.657Z,99.99
2018-05-19T01:36:52.664Z,99.99
2018-05-19T01:37:52.651Z,99.99
2018-05-19T01:38:52.655Z,99.99
2018-05-19T01:39:52.906Z,99.99
2018-05-19T01:40:52.972Z,99.99
2018-05-19T01:41:52.646Z,99.99
2018-05-19T01:42:52.914Z,99.99
2018-05-19T01:43:52.898Z,99.99
2018-05-19T01:44:52.631Z,99.99
2018-05-19T01:45:52.908Z,99.99
2018-05-19T01:46:52.629Z,99.99
2018-05-19T01:47:52.629Z,99.99
2018-05-19T01:48:52.645Z,99.99
2018-05-19T01:49:52.879Z,99.99
2018-05-19T01:50:52.646Z,99.99
2018-05-19T01:51:52.875Z,99.99
2018-05-19T01:52:52.877Z,99.99
2018-05-19T01:53:52.874Z,99.99
2018-05-19T01:54:52.617Z,99.99
2018-05-19T01:55:52.615Z,99.99
2018-05-19T01:56:52.604Z,99.99
2018-05-19T01:57:52.597Z,99.99
2018-05-19T01:58:52.876Z,99.99
2018-05-19T01:59:52.595Z,99.99
2018-05-19T02:00:52.862Z,99.99
2018-05-19T02:01:52.855Z,99.99
2018-05-19T02:02:52.591Z,99.99
2018-05-19T02:03:52.855Z,99.99
2018-05-19T02:04:52.851Z,99.99
2018-05-19T02:05:52.839Z,99.99
2018-05-19T02:06:52.840Z,99.99
2018-05-19T02:07:52.840Z,99.99
2018-05-19T02:08:52.966Z,99.99
2018-05-19T02:09:52.822Z,99.99
2018-05-19T02:10:52.839Z,99.99
2018-05-19T02:11:52.557Z,99.99
2018-05-19T02:12:52.825Z,99.99
2018-05-19T02:13:52.551Z,99.99
2018-05-19T02:14:52.817Z,99.99
2018-05-19T02:15:52.554Z,99.99
2018-05-19T02:16:52.817Z,99.99
2018-05-19T02:17:52.544Z,99.99
2018-05-19T02:18:52.542Z,99.99
2018-05-19T02:19:52.536Z,99.99
2018-05-19T02:20:52.545Z,99.99
2018-05-19T02:21:52.795Z,99.99
2018-05-19T02:22:52.792Z,99.99
2018-05-19T02:23:52.803Z,99.99
2018-05-19T02:24:52.782Z,99.99
2018-05-19T02:25:53.048Z,99.99
2018-05-19T02:26:52.787Z,99.99
2018-05-19T02:27:52.515Z,99.99
2018-05-19T02:28:52.510Z,99.99
2018-05-19T02:29:52.775Z,99.99
2018-05-19T02:30:52.510Z,99.99
2018-05-19T02:31:52.511Z,99.99
2018-05-19T02:32:52.757Z,99.99
2018-05-19T02:33:52.776Z,99.99
2018-05-19T02:34:52.767Z,99.99
2018-05-19T02:35:52.757Z,99.99
2018-05-19T02:36:52.757Z,99.99
2018-05-19T02:37:52.745Z,99.99
2018-05-19T02:38:52.488Z,99.99
2018-05-19T02:39:52.742Z,99.99
2018-05-19T02:40:52.773Z,99.99
2018-05-19T02:41:52.737Z,99.99
2018-05-19T02:42:52.746Z,99.99
2018-05-19T02:43:52.729Z,99.99
2018-05-19T02:44:52.742Z,99.99
2018-05-19T02:45:52.732Z,99.99
2018-05-19T02:46:52.740Z,99.99
2018-05-19T02:47:52.474Z,99.99
2018-05-19T02:48:52.465Z,99.99
2018-05-19T02:49:52.713Z,99.99
2018-05-19T02:50:52.714Z,99.99
2018-05-19T02:51:52.447Z,99.99
2018-05-19T02:52:52.450Z,99.99
2018-05-19T02:53:52.444Z,99.99
2018-05-19T02:54:52.448Z,99.99
2018-05-19T02:55:52.460Z,99.99
2018-05-19T02:56:52.711Z,99.99
2018-05-19T02:57:52.433Z,99.99
2018-05-19T02:58:52.440Z,99.99
2018-05-19T02:59:52.432Z,99.99
2018-05-19T03:00:52.443Z,99.99
2018-05-19T03:01:52.684Z,99.99
2018-05-19T03:02:52.777Z,99.99
2018-05-19T03:03:52.689Z,99.99
2018-05-19T03:04:52.681Z,99.99
2018-05-19T03:05:52.428Z,99.99
2018-05-19T03:06:52.676Z,99.99
2018-05-19T03:07:52.695Z,99.99
2018-05-19T03:08:52.438Z,99.99
2018-05-19T03:09:52.672Z,99.99
2018-05-19T03:10:52.758Z,99.99
2018-05-19T03:11:52.402Z,99.99
2018-05-19T03:12:52.667Z,99.99
2018-05-19T03:13:52.661Z,99.99
2018-05-19T03:14:52.384Z,99.99
2018-05-19T03:15:52.660Z,99.99
2018-05-19T03:16:52.657Z,99.99
2018-05-19T03:17:52.380Z,99.99
2018-05-19T03:18:52.667Z,99.99
2018-05-19T03:19:52.382Z,99.99
2018-05-19T03:20:52.671Z,99.99
2018-05-19T03:21:52.637Z,99.99
2018-05-19T03:22:52.373Z,99.99
2018-05-19T03:23:52.374Z,99.99
2018-05-19T03:24:52.357Z,99.99
2018-05-19T03:25:52.371Z,99.99
2018-05-19T03:26:52.363Z,99.99
2018-05-19T03:27:52.621Z,99.99
2018-05-19T03:28:52.617Z,99.99
2018-05-19T03:29:52.359Z,99.99
2018-05-19T03:30:52.610Z,99.99
2018-05-19T03:31:52.356Z,99.99
2018-05-19T03:32:52.630Z,99.99
2018-05-19T03:33:52.614Z,99.99
2018-05-19T03:34:52.327Z,99.99
2018-05-19T03:35:52.585Z,99.99
2018-05-19T03:36:52.583Z,99.99
2018-05-19T03:37:52.593Z,99.99
2018-05-19T03:38:52.581Z,99.99
2018-05-19T03:39:52.579Z,99.99
2018-05-19T03:40:52.642Z,99.99
2018-05-19T03:41:52.571Z,99.99
2018-05-19T03:42:52.561Z,99.99
2018-05-19T03:43:52.311Z,99.99
2018-05-19T03:44:52.324Z,99.99
2018-05-19T03:45:52.552Z,99.99
2018-05-19T03:46:52.559Z,99.99
2018-05-19T03:47:52.545Z,99.99
2018-05-19T03:48:52.287Z,99.99
2018-05-19T03:49:52.552Z,99.99
2018-05-19T03:50:52.567Z,99.99
2018-05-19T03:51:52.276Z,99.99
2018-05-19T03:52:52.543Z,99.99
2018-05-19T03:53:52.672Z,99.99
2018-05-19T03:54:52.278Z,99.99
2018-05-19T03:55:54.380Z,99.99
2018-05-19T03:56:52.532Z,99.99
2018-05-19T03:57:52.530Z,99.99
2018-05-19T03:58:52.258Z,99.99
2018-05-19T03:59:52.574Z,99.99
2018-05-19T04:00:52.254Z,99.99
2018-05-19T04:01:52.525Z,99.99
2018-05-19T04:02:52.257Z,99.99
2018-05-19T04:03:52.238Z,99.99
2018-05-19T04:04:52.514Z,99.99
2018-05-19T04:05:52.235Z,99.99
2018-05-19T04:06:52.502Z,99.99
2018-05-19T04:07:52.493Z,99.99
2018-05-19T04:08:52.487Z,99.99
2018-05-19T04:09:52.481Z,99.99
2018-05-19T04:10:52.525Z,99.99
2018-05-19T04:11:52.219Z,99.99
2018-05-19T04:12:52.215Z,99.99
2018-05-19T04:13:52.480Z,99.99
2018-05-19T04:14:52.476Z,99.99
2018-05-19T04:15:52.477Z,99.99
2018-05-19T04:16:52.206Z,99.99
2018-05-19T04:17:52.462Z,99.99
2018-05-19T04:18:52.461Z,99.99
2018-05-19T04:19:52.452Z,99.99
2018-05-19T04:20:52.497Z,99.99
2018-05-19T04:21:52.240Z,99.99
2018-05-19T04:22:52.452Z,99.99
2018-05-19T04:23:52.450Z,99.99
2018-05-19T04:24:52.453Z,99.99
2018-05-19T04:25:52.445Z,99.99
2018-05-19T04:26:52.173Z,99.99
2018-05-19T04:27:52.435Z,99.99
2018-05-19T04:28:52.183Z,99.99
2018-05-19T04:29:52.423Z,99.99
2018-05-19T04:30:52.432Z,99.99
2018-05-19T04:31:52.416Z,99.99
2018-05-19T04:32:52.155Z,99.99
2018-05-19T04:33:52.157Z,99.99
2018-05-19T04:34:52.406Z,99.99
2018-05-19T04:35:52.410Z,99.99
2018-05-19T04:36:52.147Z,99.99
2018-05-19T04:37:52.414Z,99.99
2018-05-19T04:38:52.404Z,99.99
2018-05-19T04:39:52.398Z,99.99
2018-05-19T04:40:52.448Z,99.99
2018-05-19T04:41:52.391Z,99.99
2018-05-19T04:42:52.129Z,99.99
2018-05-19T04:43:52.411Z,99.99
2018-05-19T04:44:52.129Z,99.99
2018-05-19T04:45:52.130Z,99.99
2018-05-19T04:46:52.390Z,99.99
2018-05-19T04:47:52.379Z,99.99
2018-05-19T04:48:52.123Z,99.99
2018-05-19T04:49:52.371Z,99.99
2018-05-19T04:50:52.366Z,99.99
2018-05-19T04:51:52.362Z,99.99
2018-05-19T04:52:52.371Z,99.99
2018-05-19T04:53:52.104Z,99.99
2018-05-19T04:54:52.417Z,99.99
2018-05-19T04:55:52.106Z,99.99
2018-05-19T04:56:52.477Z,99.99
2018-05-19T04:57:52.351Z,99.99
2018-05-19T04:58:52.366Z,99.99
2018-05-19T04:59:52.340Z,99.99
2018-05-19T05:00:52.353Z,99.99
2018-05-19T05:01:52.348Z,99.99
2018-05-19T05:02:52.086Z,99.99
2018-05-19T05:03:52.604Z,99.99
2018-05-19T05:04:52.350Z,99.99
2018-05-19T05:05:52.096Z,99.99
2018-05-19T05:06:52.082Z,99.99
2018-05-19T05:07:52.342Z,99.99
2018-05-19T05:08:52.333Z,99.99
2018-05-19T05:09:52.346Z,99.99
2018-05-19T05:10:52.069Z,99.99
2018-05-19T05:11:52.325Z,99.99
2018-05-19T05:12:52.320Z,99.99
2018-05-19T05:13:52.094Z,99.99
2018-05-19T05:14:52.332Z,99.99
2018-05-19T05:15:52.057Z,99.99
2018-05-19T05:16:52.330Z,99.99
2018-05-19T05:17:52.329Z,99.99
2018-05-19T05:18:52.333Z,99.99
2018-05-19T05:19:52.357Z,99.99
2018-05-19T05:20:52.352Z,99.99
2018-05-19T05:21:52.307Z,99.99
2018-05-19T05:22:52.319Z,99.99
2018-05-19T05:23:52.088Z,99.99
2018-05-19T05:24:52.318Z,99.99
2018-05-19T05:25:52.320Z,99.47
2018-05-19T05:26:52.312Z,98.61
2018-05-19T05:27:52.046Z,98.8
2018-05-19T05:28:52.317Z,99.28
2018-05-19T05:29:52.298Z,97.89
2018-05-19T05:30:52.027Z,96.75
2018-05-19T05:31:52.034Z,96.94
2018-05-19T05:32:52.310Z,97.52
2018-05-19T05:33:52.026Z,98.23
2018-05-19T05:34:52.316Z,98.99
2018-05-19T05:35:52.378Z,98.03
2018-05-19T05:36:52.333Z,98.32
2018-05-19T05:37:52.024Z,97.08
2018-05-19T05:38:52.032Z,96.56
2018-05-19T05:39:52.028Z,96.17
2018-05-19T05:40:52.278Z,96.75
2018-05-19T05:41:52.288Z,96.75
2018-05-19T05:42:52.272Z,96.03
2018-05-19T05:43:52.290Z,93.93
2018-05-19T05:44:52.272Z,92.3
2018-05-19T05:45:52.040Z,91.35
2018-05-19T05:46:52.272Z,91.54
2018-05-19T05:47:52.270Z,92.5
2018-05-19T05:48:52.291Z,92.69
2018-05-19T05:49:52.292Z,92.5
2018-05-19T05:50:52.290Z,92.02
2018-05-19T05:51:52.288Z,91.11
2018-05-19T05:52:52.270Z,90.06
2018-05-19T05:53:52.272Z,88.24
2018-05-19T05:54:52.031Z,87.57
2018-05-19T05:55:52.271Z,87.14
2018-05-19T05:56:52.181Z,87.04
2018-05-19T05:57:52.021Z,86.37
2018-05-19T05:58:52.013Z,86.28
2018-05-19T05:59:52.127Z,86.18
2018-05-19T06:00:52.021Z,86.08
2018-05-19T06:01:52.281Z,86.37
2018-05-19T06:02:52.282Z,86.71
2018-05-19T06:03:52.271Z,88.24
2018-05-19T06:04:52.022Z,88.81
2018-05-19T06:05:52.281Z,88.34
2018-05-19T06:06:52.289Z,86.61
2018-05-19T06:07:52.026Z,87.48
2018-05-19T06:08:52.029Z,87.48
2018-05-19T06:09:52.288Z,87.38
2018-05-19T06:10:52.034Z,86.71
2018-05-19T06:11:52.078Z,87.76
2018-05-19T06:12:52.287Z,87
2018-05-19T06:13:52.016Z,85.61
2018-05-19T06:23:52.820Z,78.99
2018-05-19T06:24:52.556Z,78.32
2018-05-19T06:25:52.815Z,77.5
2018-05-19T06:26:52.797Z,77.97
2018-05-19T06:27:52.539Z,77.59
2018-05-19T06:28:52.807Z,77.59
2018-05-19T06:29:52.552Z,77.88
2018-05-19T06:30:52.806Z,77.88
2018-05-19T06:31:52.540Z,77.94
2018-05-19T06:32:52.799Z,79.08
2018-05-19T06:33:52.542Z,80.33
2018-05-19T06:34:52.942Z,81.15
2018-05-19T06:35:52.549Z,81.15
2018-05-19T06:36:52.550Z,80.77
2018-05-19T06:37:52.803Z,81.05
2018-05-19T06:38:52.556Z,80.96
2018-05-19T06:39:52.556Z,80.48
2018-05-19T06:40:52.801Z,81.05
2018-05-19T06:41:52.801Z,80.19
2018-05-19T06:42:52.547Z,80.14
2018-05-19T06:43:52.817Z,80.62
2018-05-19T06:44:52.804Z,79.75
2018-05-19T06:45:52.811Z,78.27
2018-05-19T06:46:52.564Z,78.27
2018-05-19T06:47:52.850Z,78.36
2018-05-19T06:48:52.576Z,78.36
2018-05-19T06:49:52.562Z,78.55
2018-05-19T06:50:52.557Z,78.55
2018-05-19T06:51:52.818Z,77.4
2018-05-19T06:52:52.817Z,77.59
2018-05-19T06:53:52.822Z,78.74
2018-05-19T06:54:52.575Z,78.8
2018-05-19T06:55:52.829Z,79.85
2018-05-19T06:56:52.561Z,80.19
2018-05-19T06:57:52.825Z,81.54
2018-05-19T06:58:55.867Z,81.92
2018-05-19T06:59:52.823Z,81.63
2018-05-19T07:00:52.835Z,81.54
2018-05-19T07:01:52.562Z,81.44
2018-05-19T07:02:52.568Z,78.99
2018-05-19T07:03:52.827Z,78.22
2018-05-19T07:04:52.829Z,78.17
2018-05-19T07:05:52.576Z,77.5
2018-05-19T07:06:52.576Z,76.92
2018-05-19T07:07:52.837Z,77.69
2018-05-19T07:08:52.838Z,76.15
2018-05-19T07:09:52.843Z,74.47
2018-05-19T07:10:52.836Z,73.55
2018-05-19T07:11:52.840Z,73.35
2018-05-19T07:12:52.860Z,72.01
2018-05-19T07:13:52.580Z,73.26
2018-05-19T07:14:52.852Z,74.18
2018-05-19T07:15:52.854Z,74.66
2018-05-19T07:16:52.593Z,75.39
2018-05-19T07:17:52.865Z,75.48
2018-05-19T07:18:52.851Z,74.37
2018-05-19T07:19:52.604Z,72.88
2018-05-19T07:20:52.603Z,71.57
2018-05-19T07:21:52.857Z,68.73
2018-05-19T07:22:52.605Z,65.69
2018-05-19T07:23:52.609Z,63.54
2018-05-19T07:24:52.619Z,63.73
2018-05-19T07:25:52.915Z,61.46
2018-05-19T07:26:52.915Z,60.14
2018-05-19T07:27:52.623Z,59.85
2018-05-19T07:28:52.885Z,60.52
2018-05-19T07:29:52.633Z,61.84
2018-05-19T07:30:52.632Z,63.06
2018-05-19T07:31:52.637Z,64.37
2018-05-19T07:32:52.901Z,66.46
2018-05-19T07:33:52.900Z,67.29
2018-05-19T07:34:52.652Z,69.4
2018-05-19T07:35:53.015Z,70.9
2018-05-19T07:36:52.910Z,71.34
2018-05-19T07:37:52.659Z,72.59
2018-05-19T07:38:52.926Z,72.39
2018-05-19T07:39:52.673Z,72.3
2018-05-19T07:40:52.678Z,71.72
2018-05-19T07:41:52.931Z,71.34
2018-05-19T07:42:52.936Z,71.25
2018-05-19T07:43:52.949Z,71.53
2018-05-19T07:44:52.937Z,71.53
2018-05-19T07:45:52.951Z,71.25
2018-05-19T07:46:52.953Z,71.09
2018-05-19T07:47:52.953Z,71.25
2018-05-19T07:48:52.957Z,72.11
2018-05-19T07:49:52.963Z,73.16
2018-05-19T07:50:53.093Z,73.9
2018-05-19T07:51:52.690Z,72.84
2018-05-19T07:52:52.962Z,73.35
2018-05-19T07:53:52.960Z,73.45
2018-05-19T07:54:52.955Z,73.35
2018-05-19T07:55:52.970Z,72.39
2018-05-19T07:56:52.702Z,72.01
2018-05-19T07:57:52.972Z,71.63
2018-05-19T07:58:52.973Z,72.49
2018-05-19T07:59:52.710Z,72.59
2018-05-19T08:00:52.713Z,72.97
2018-05-19T08:01:52.977Z,71.53
2018-05-19T08:02:52.734Z,70.61
2018-05-19T08:03:52.974Z,69.3
2018-05-19T08:04:52.733Z,67.41
2018-05-19T08:05:52.736Z,65.43
2018-05-19T08:06:52.725Z,64.12
2018-05-19T08:07:52.732Z,62.13
2018-05-19T08:08:52.734Z,61.84
2018-05-19T08:09:52.987Z,61.46
2018-05-19T08:10:53.036Z,59.66
2018-05-19T08:11:52.753Z,60.36
2018-05-19T08:12:53.007Z,59.69
2018-05-19T08:13:53.044Z,59.49
2018-05-19T08:14:53.030Z,57.5
2018-05-19T08:15:53.019Z,57.12
2018-05-19T08:16:53.045Z,56.76
2018-05-19T08:17:52.766Z,56.85
2018-05-19T08:18:52.767Z,56.11
2018-05-19T08:19:53.033Z,54.47
2018-05-19T08:20:53.093Z,54.47
2018-05-19T08:21:53.047Z,54.28
2018-05-19T08:22:53.045Z,54.86
2018-05-19T08:23:52.835Z,56.47
2018-05-19T08:24:53.108Z,58.08
2018-05-19T08:25:53.074Z,59.78
2018-05-19T08:26:53.068Z,60.62
2018-05-19T08:27:53.075Z,62.13
2018-05-19T08:28:53.075Z,61.65
2018-05-19T08:29:53.077Z,61.55
2018-05-19T08:30:53.086Z,60.24
2018-05-19T08:31:53.094Z,61
2018-05-19T08:32:52.834Z,61.26
2018-05-19T08:33:52.836Z,61.65
2018-05-19T08:34:53.106Z,61.23
2018-05-19T08:35:52.851Z,61.84
2018-05-19T08:36:52.862Z,62.32
2018-05-19T08:37:53.115Z,60.24
2018-05-19T08:38:52.850Z,58.6
2018-05-19T08:39:53.118Z,57.86
2018-05-19T08:40:53.131Z,58.24
2018-05-19T08:41:52.868Z,58.34
2018-05-19T08:42:52.885Z,57.18
2018-05-19T08:43:53.141Z,58.85
2018-05-19T08:44:52.930Z,58.24
2018-05-19T08:45:53.151Z,57.18
2018-05-19T08:46:53.151Z,56.8
2018-05-19T08:47:53.159Z,57.28
2018-05-19T08:48:53.158Z,58.15
2018-05-19T08:49:53.174Z,57.28
2018-05-19T08:50:52.916Z,58.05
2018-05-19T08:51:52.918Z,58.34
2018-05-19T08:52:52.927Z,56.99
2018-05-19T08:53:53.188Z,56.87
2018-05-19T08:54:53.191Z,58.4
2018-05-19T08:55:53.211Z,59.24
2018-05-19T08:56:52.939Z,60.01
2018-05-19T08:57:52.941Z,61.33
2018-05-19T08:58:53.220Z,62.87
2018-05-19T08:59:52.949Z,61.11
2018-05-19T09:00:53.218Z,60.91
2018-05-19T09:01:52.967Z,61.36
2018-05-19T09:02:52.968Z,62.13
2018-05-19T09:03:52.967Z,63.86
2018-05-19T09:04:52.973Z,64.25
2018-05-19T09:05:53.233Z,63.67
2018-05-19T09:06:53.262Z,64.09
2018-05-19T09:07:53.234Z,63.7
2018-05-19T09:08:53.259Z,65.43
2018-05-19T09:09:53.249Z,64.18
2018-05-19T09:10:53.265Z,62.93
2018-05-19T09:11:53.250Z,62.26
2018-05-19T09:12:53.498Z,63.12
2018-05-19T09:13:53.259Z,63.28
2018-05-19T09:14:53.321Z,63.76
2018-05-19T09:15:53.002Z,63.48
2018-05-19T09:16:53.271Z,63.67
2018-05-19T09:17:53.287Z,63.28
2018-05-19T09:18:53.017Z,63.28
2018-05-19T09:19:53.285Z,61.2
2018-05-19T09:20:53.296Z,60.82
2018-05-19T09:21:53.024Z,60.82
2018-05-19T09:22:53.024Z,60.66
2018-05-19T09:23:53.284Z,59.69
2018-05-19T09:24:53.300Z,59.38
2018-05-19T09:25:53.299Z,59.95
2018-05-19T09:26:53.301Z,61.3
2018-05-19T09:27:53.312Z,60.14
2018-05-19T09:28:53.305Z,60.14
2018-05-19T09:29:53.101Z,59.89
2018-05-19T09:30:53.304Z,59.5
2018-05-19T09:31:53.060Z,59.99
2018-05-19T09:32:53.313Z,60.05
2018-05-19T09:33:53.326Z,60.63
2018-05-19T09:34:53.061Z,60.24
2018-05-19T09:35:53.328Z,60.63
2018-05-19T09:36:53.338Z,61.11
2018-05-19T09:37:53.069Z,61.2
2018-05-19T09:38:53.335Z,60.91
2018-05-19T09:39:53.336Z,60.05
2018-05-19T09:40:53.373Z,57.84
2018-05-19T09:41:53.342Z,57.45
2018-05-19T09:42:53.359Z,57.93
2018-05-19T09:43:53.356Z,57.77
2018-05-19T09:44:53.410Z,57.29
2018-05-19T09:45:53.364Z,56.33
2018-05-19T09:46:53.092Z,55.11
2018-05-19T09:47:53.358Z,53.59
2018-05-19T09:48:53.361Z,54.27
2018-05-19T09:49:53.362Z,57.06
2018-05-19T09:50:53.120Z,57.25
2018-05-19T09:51:53.367Z,56.96
2018-05-19T09:52:53.394Z,55.81
2018-05-19T09:53:53.382Z,56.77
2018-05-19T09:54:53.385Z,57.35
2018-05-19T09:55:53.387Z,57.03
2018-05-19T09:56:53.399Z,57.03
2018-05-19T09:57:53.395Z,55.88
2018-05-19T09:58:53.392Z,56.55
2018-05-19T09:59:53.185Z,55.4
2018-05-19T10:00:53.140Z,55.3
2018-05-19T10:01:53.408Z,55.01
2018-05-19T10:02:53.413Z,55.11
2018-05-19T10:03:53.150Z,55.98
2018-05-19T10:04:53.627Z,57.03
2018-05-19T10:05:53.434Z,57.51
2018-05-19T10:06:53.425Z,58.25
2018-05-19T10:07:53.165Z,59.02
2018-05-19T10:08:53.439Z,59.66
2018-05-19T10:09:53.434Z,59.66
2018-05-19T10:10:53.181Z,59.19
2018-05-19T10:11:53.459Z,58.61
2018-05-19T10:12:53.452Z,58.13
2018-05-19T10:13:53.184Z,57.36
2018-05-19T10:14:53.487Z,58.03
2018-05-19T10:15:53.451Z,57.55
2018-05-19T10:16:53.464Z,57.36
2018-05-19T10:17:53.189Z,58.03
2018-05-19T10:18:53.455Z,58.8
2018-05-19T10:19:53.998Z,60.34
2018-05-19T10:20:53.485Z,58.61
2018-05-19T10:21:53.470Z,58.61
2018-05-19T10:53:18.302Z,51.62
2018-05-19T10:54:16.135Z,51.04
2018-05-19T10:55:16.135Z,51.04
2018-05-19T10:56:16.393Z,51.64
2018-05-19T10:57:16.404Z,52.32
2018-05-19T10:58:16.389Z,51.74
2018-05-19T10:59:16.130Z,50.68
2018-05-19T11:00:16.146Z,50.78
2018-05-19T11:01:16.404Z,51.26
2018-05-19T11:02:16.395Z,51.93
2018-05-19T11:03:16.170Z,54.91
2018-05-19T11:04:16.405Z,53.57
2018-05-19T11:05:16.414Z,53.09
2018-05-19T11:06:16.396Z,53.09
2018-05-19T11:07:16.400Z,53.28
2018-05-19T11:08:16.420Z,54.05
2018-05-19T11:09:16.406Z,54.53
2018-05-19T11:10:16.431Z,55.11
2018-05-19T11:11:16.407Z,55.59
2018-05-19T11:12:16.411Z,54.63
2018-05-19T11:13:16.427Z,53.78
2018-05-19T11:14:16.166Z,53.02
2018-05-19T11:15:16.465Z,52.95
2018-05-19T11:16:16.163Z,52.56
2018-05-19T11:17:16.430Z,53.62
2018-05-19T11:18:16.171Z,53.05
2018-05-19T11:19:16.184Z,53.53
2018-05-19T11:20:16.430Z,53.36
2018-05-19T11:21:16.181Z,52.78
2018-05-19T11:22:16.192Z,53.33
2018-05-19T11:23:16.481Z,53.33
2018-05-19T11:24:16.446Z,53.88
2018-05-19T11:25:16.200Z,53.98
2018-05-19T11:26:16.447Z,54.36
2018-05-19T11:27:16.462Z,55.52
2018-05-19T11:28:16.375Z,56.07
2018-05-19T11:29:16.210Z,56.65
2018-05-19T11:30:16.481Z,57.22
2018-05-19T11:31:16.217Z,58.18
2018-05-19T11:32:16.484Z,60.39
2018-05-19T11:33:16.235Z,58.09
2018-05-19T11:34:16.481Z,56.65
2018-05-19T11:35:16.480Z,56.23
2018-05-19T11:36:16.480Z,55.85
2018-05-19T11:37:16.231Z,56.91
2018-05-19T11:38:16.508Z,57.58
2018-05-19T11:39:16.495Z,58.35
2018-05-19T11:40:16.493Z,57.39
2018-05-19T11:41:16.495Z,57.29
2018-05-19T11:42:16.493Z,57
2018-05-19T11:43:16.503Z,56.91
2018-05-19T11:44:16.515Z,58.28
2018-05-19T11:45:16.266Z,59.53
2018-05-19T11:46:16.278Z,57.9
2018-05-19T11:47:16.514Z,57.32
2018-05-19T11:48:16.264Z,57.73
2018-05-19T11:49:16.517Z,55.43
2018-05-19T11:50:16.532Z,54.65
2018-05-19T11:51:16.536Z,54.97
2018-05-19T11:52:16.275Z,55.43
2018-05-19T11:53:16.536Z,56.58
2018-05-19T11:54:16.551Z,57.25
2018-05-19T11:55:16.545Z,57.54
2018-05-19T11:56:16.542Z,56.03
2018-05-19T11:57:16.537Z,55.74
2018-05-19T11:58:16.291Z,56.7
2018-05-19T11:59:16.552Z,55.45
2018-05-19T12:00:16.554Z,54.58
2018-05-19T12:01:16.562Z,53.81
2018-05-19T12:02:16.294Z,53.62
2018-05-19T12:03:16.557Z,53.65
2018-05-19T12:04:16.645Z,53.55
2018-05-19T12:05:16.313Z,53.45
2018-05-19T12:06:16.313Z,52.4
2018-05-19T12:07:16.569Z,53.36
2018-05-19T12:08:16.577Z,52.04
2018-05-19T12:09:16.315Z,52.23
2018-05-19T12:10:16.320Z,51.94
2018-05-19T12:11:16.322Z,52.13
2018-05-19T12:12:16.847Z,51.75
2018-05-19T12:13:16.327Z,50.78
2018-05-19T12:14:17.145Z,51.36
2018-05-19T12:15:16.342Z,51.72
2018-05-19T12:16:16.668Z,52.69
2018-05-19T12:17:16.346Z,53.17
2018-05-19T12:18:16.608Z,53.07
2018-05-19T12:19:16.691Z,52.85
2018-05-19T12:20:16.362Z,53.43
2018-05-19T12:21:16.360Z,53.17
2018-05-19T12:22:16.620Z,52.97
2018-05-19T12:23:16.639Z,52.2
2018-05-19T12:24:16.384Z,51.34
2018-05-19T12:25:16.376Z,51.82
2018-05-19T12:26:16.385Z,52.11
2018-05-19T12:27:16.635Z,52.56
2018-05-19T12:28:16.647Z,53.23
2018-05-19T12:29:16.382Z,52.37
2018-05-19T12:30:16.383Z,52.37
2018-05-19T12:31:16.663Z,52.08
2018-05-19T12:32:16.667Z,51.89
2018-05-19T12:33:16.669Z,51.79
2018-05-19T12:34:16.661Z,51.98
2018-05-19T12:35:16.661Z,50.83
2018-05-19T12:36:16.660Z,50.73
2018-05-19T12:37:16.673Z,50.73
2018-05-19T12:38:16.415Z,51.19
2018-05-19T12:39:16.416Z,50.9
2018-05-19T12:40:16.417Z,50.45
2018-05-19T12:41:16.431Z,51.02
2018-05-19T12:42:16.416Z,51.02
2018-05-19T12:43:16.692Z,51.21
2018-05-19T12:44:17.664Z,51.89
2018-05-19T12:45:16.434Z,51.98
2018-05-19T12:46:16.433Z,51.89
2018-05-19T12:47:16.698Z,51.98
2018-05-19T12:48:16.699Z,52.47
2018-05-19T12:49:16.697Z,52.56
2018-05-19T12:50:16.705Z,52.37
2018-05-19T12:51:16.709Z,52.27
2018-05-19T12:52:16.445Z,52.56
2018-05-19T12:53:16.708Z,53.23
2018-05-19T12:54:16.707Z,52.56
2018-05-19T12:55:16.732Z,52.66
2018-05-19T12:56:16.738Z,52.37
2018-05-19T12:57:16.729Z,52.37
2018-05-19T12:58:17.712Z,52.2
2018-05-19T12:59:16.726Z,52.3
2018-05-19T13:00:17.556Z,51.79
2018-05-19T13:01:16.471Z,51.72
2018-05-19T13:02:16.740Z,52.27
2018-05-19T13:03:16.480Z,52.2
2018-05-19T13:04:16.475Z,52.18
2018-05-19T13:05:16.501Z,52.56
2018-05-19T13:06:16.744Z,52.08
2018-05-19T13:07:16.766Z,51.6
2018-05-19T13:08:16.757Z,51.82
2018-05-19T13:09:16.491Z,51.34
2018-05-19T13:10:16.764Z,51.24
2018-05-19T13:11:16.760Z,50.47
2018-05-19T13:12:16.775Z,50.95
2018-05-19T13:13:16.768Z,51.07
2018-05-19T13:14:16.787Z,51.26
2018-05-19T13:15:16.512Z,50.69
2018-05-19T13:16:16.772Z,50.78
2018-05-19T13:17:16.776Z,52.04
2018-05-19T13:18:16.782Z,51.75
2018-05-19T13:19:16.532Z,54.74
2018-05-19T13:20:16.531Z,52.91
2018-05-19T13:21:16.534Z,52.3
2018-05-19T13:22:16.798Z,52.81
2018-05-19T13:23:16.540Z,52.69
2018-05-19T13:24:16.540Z,53.29
2018-05-19T13:25:16.803Z,53.94
2018-05-19T13:26:16.800Z,53.84
2018-05-19T13:27:16.549Z,53.55
2018-05-19T13:28:16.554Z,53.45
2018-05-19T13:29:16.816Z,54.9
2018-05-19T13:30:16.817Z,54.49
2018-05-19T13:31:16.828Z,54.97
2018-05-19T13:32:16.567Z,54.39
2018-05-19T13:33:16.582Z,54.13
2018-05-19T13:34:16.819Z,53.94